Provo Municipal Airport Provo US
ICAO: KPVU
IATA: PVU
Category: Medium
Scheduled Services: No

Elevation: 4497 ft
TransAlt. 18000 ft.

Airport Communications:
SALT LAKE CITY APP:124.3
ATIS:135.175
AWOS 3:135.175
SALT LAKE CITY DEP:118.85
GND:119.4
TWR:125.3
CTAF/UNICOM:125.3

KPVU Zoom In..

Runways:

(A) RW 13 length 8599 ft width 150 ft
ILS 110.30 / hdg 134

(B) RW 18 length 6614 ft width 150 ft
---- / hdg 180

(C) RW 31 length 8599 ft width 150 ft
---- / hdg 314

(D) RW 36 length 6614 ft width 150 ft
---- / hdg 360

Location; KPVU
Day. 06 / Time. 05.56 Zulu
* Altimeter: 29.90
* Temperature: 26° c. 78.8°f.
* Wind from: 110° Speed 07 kn.
Dewpoint: 04° c.
Visibility: 10 Statute Miles.
Clouds: Clear (automated report).

KPVU 060556Z AUTO 11007KT 10SM CLR 26/04 A2990 RMK AO2 SLP056 60000 T02610039 10350 20261 51015

Going to: --> -->


Wind From 110°
Speed 07 kn.

 
 
jpsmedia worldairports.se 2020   terms of use